Sublette, KS (67877)

10:32 PM CDT on August 01, 2014 (GMT -0500)
Lobmeyer Seed Farms (KKSGARDE9) Elev 2890 ft | 37.74 °N, 100.85 °W | Change Station

Current weather conditions updated 5 minutes ago

Clear
Clear
73.7 °F
Feels Like 75 °F
N
0.0
Wind Variable Wind from NE
Gusts 3.0 mph

Tomorrow is forecast to be nearly the same temperature as today.

Today
High -- | Low -- °F
--% Chance of Precip.
Yesterday
High -- | Low -- °F
Precip. -- in
6:47 AM 8:51 PM
Waxing Crescent, 31% visible
Pressure 30.05 in
Visibility 10.0 miles
Clouds Clear
Heat Index 75 °F
Dew Point 65 °F
Humidity 73%
Rainfall 0.00 in
Snow Depth Not available.
UV 0 out of 12
Pollen 7.30 out of 12
Air Quality Not available.
Flu Activity Not available.
METAR KGCK 020254Z AUTO 02005KT 10SM CLR 23/14 A3014 RMK AO2 SLP176 T02330144 53010

More Conditions Fewer Conditions

Pressure 30.05 in
Visibility 10.0 miles
Clouds Clear
Heat Index 75 °F
Dew Point 65 °F
Humidity 73%
Rainfall 0.00 in
Snow Depth Not available.
UV 0 out of 12
Pollen 7.30 out of 12
Air Quality Not available.
Flu Activity Not available.
METAR KGCK 020254Z AUTO 02005KT 10SM CLR 23/14 A3014 RMK AO2 SLP176 T02330144 53010

More Conditions Fewer Conditions

10-Day Weather Forecast

Almanac

Astronomy

Aug. 01, 2014 Rise Set
Actual Time 6:47 AM CDT 8:51 PM CDT
Civil Twilight 6:18 AM CDT 9:20 PM CDT
Nautical Twilight 5:43 AM CDT 9:55 PM CDT
Astronomical Twilight 5:05 AM CDT 10:33 PM CDT
Moon 12:05 PM CDT (8/1) 11:44 PM CDT (8/1)
Length of Visible Light 15h 01m
Length of Day
14h 03m
Tomorrow will be 1m 49s shorter.
Waxing Crescent, 31% of the Moon is Illuminated
Today
Waxing Crescent
Aug 3
First Quarter
Aug 10
Full
Aug 17
Last Quarter
Aug 25
New

Today's Extremes

State Highs State Lows

Community

WunderPhotos

Upload Photos

1,739,826 photos uploaded!

Nearby

Snow Depth

Station Depth Elevation
No new snow has been reported.

Earthquake Activity

City Distance Mag. Time & Date
No recent earthquake activity has been reported nearby.
Minimum magnitude displayed is 2.5.

Coastal Water Temperatures

Place Temperature
No Stations Reporting

Nearby Weather Stations

Station Location Temp. Heat Index Dew Point Humidity Wind Precip. Elev Updated Type
Lobmeyer Seed Farms, Garden City, KS 73.7 °F 75 °F 65 °F 73% NE  at  0.0 mph 0.00 in / hr 2890 ft 10:27 PM CDT Normal
MesoWest HOBART , Plains, KS 73 °F 71 °F - - North  at  - 0.00 in / hr 2759 ft 9:15 PM CDT MADIS

Show More Stations Show Fewer Stations